sensor_id;sensor_type;location;lat;lon;timestamp;P1;durP1;ratioP1;P2;durP2;ratioP2
24086;SDS011;22893;50.572;7.234;2022-11-13T01:26:48;4.20;;;3.10;;
24086;SDS011;22893;50.572;7.234;2022-11-13T01:29:16;6.25;;;3.27;;
24086;SDS011;22893;50.572;7.234;2022-11-13T01:31:44;5.22;;;2.62;;
24086;SDS011;22893;50.572;7.234;2022-11-13T01:34:11;5.30;;;3.27;;
24086;SDS011;22893;50.572;7.234;2022-11-13T01:36:39;5.92;;;2.80;;
24086;SDS011;22893;50.572;7.234;2022-11-13T01:39:07;4.92;;;3.20;;
24086;SDS011;22893;50.572;7.234;2022-11-13T01:41:36;4.35;;;2.52;;
24086;SDS011;22893;50.572;7.234;2022-11-13T01:44:05;4.65;;;3.02;;
24086;SDS011;22893;50.572;7.234;2022-11-13T01:46:38;3.90;;;2.47;;
24086;SDS011;22893;50.572;7.234;2022-11-13T01:51:39;5.70;;;3.20;;
24086;SDS011;22893;50.572;7.234;2022-11-13T01:54:16;5.70;;;3.33;;
24086;SDS011;22893;50.572;7.234;2022-11-13T01:56:45;5.75;;;3.52;;
24086;SDS011;22893;50.572;7.234;2022-11-13T01:59:15;5.62;;;3.40;;
24086;SDS011;22893;50.572;7.234;2022-11-13T02:01:45;6.00;;;3.40;;
24086;SDS011;22893;50.572;7.234;2022-11-13T02:04:12;5.75;;;3.05;;
24086;SDS011;22893;50.572;7.234;2022-11-13T02:06:46;5.70;;;2.83;;
24086;SDS011;22893;50.572;7.234;2022-11-13T02:09:11;5.10;;;3.10;;
24086;SDS011;22893;50.572;7.234;2022-11-13T02:11:39;4.45;;;2.83;;
24086;SDS011;22893;50.572;7.234;2022-11-13T02:14:08;5.92;;;3.05;;
24086;SDS011;22893;50.572;7.234;2022-11-13T02:16:37;5.28;;;3.40;;
24086;SDS011;22893;50.572;7.234;2022-11-13T02:19:09;4.55;;;2.50;;
24086;SDS011;22893;50.572;7.234;2022-11-13T02:21:43;5.45;;;3.10;;
24086;SDS011;22893;50.572;7.234;2022-11-13T02:24:25;5.92;;;3.00;;
24086;SDS011;22893;50.572;7.234;2022-11-13T02:26:51;6.58;;;3.15;;
24086;SDS011;22893;50.572;7.234;2022-11-13T02:29:21;6.40;;;3.22;;
24086;SDS011;22893;50.572;7.234;2022-11-13T02:31:49;4.28;;;2.95;;
24086;SDS011;22893;50.572;7.234;2022-11-13T02:34:16;6.53;;;2.92;;
24086;SDS011;22893;50.572;7.234;2022-11-13T02:36:44;4.55;;;2.87;;
24086;SDS011;22893;50.572;7.234;2022-11-13T02:39:12;5.90;;;3.33;;
24086;SDS011;22893;50.572;7.234;2022-11-13T02:41:40;6.90;;;3.37;;
24086;SDS011;22893;50.572;7.234;2022-11-13T02:44:07;6.12;;;3.65;;
24086;SDS011;22893;50.572;7.234;2022-11-13T02:46:35;6.03;;;3.08;;
24086;SDS011;22893;50.572;7.234;2022-11-13T02:49:03;7.30;;;3.92;;
24086;SDS011;22893;50.572;7.234;2022-11-13T02:51:31;6.65;;;2.85;;
24086;SDS011;22893;50.572;7.234;2022-11-13T02:53:58;5.28;;;2.85;;
24086;SDS011;22893;50.572;7.234;2022-11-13T02:56:26;6.97;;;3.55;;
24086;SDS011;22893;50.572;7.234;2022-11-13T02:58:54;7.60;;;3.30;;
24086;SDS011;22893;50.572;7.234;2022-11-13T03:01:21;5.83;;;3.00;;
24086;SDS011;22893;50.572;7.234;2022-11-13T03:03:49;7.75;;;3.40;;
24086;SDS011;22893;50.572;7.234;2022-11-13T03:06:17;7.12;;;3.45;;
24086;SDS011;22893;50.572;7.234;2022-11-13T03:08:44;5.95;;;3.10;;
24086;SDS011;22893;50.572;7.234;2022-11-13T03:11:12;6.72;;;3.42;;
24086;SDS011;22893;50.572;7.234;2022-11-13T03:13:39;5.72;;;3.35;;
24086;SDS011;22893;50.572;7.234;2022-11-13T03:16:11;6.37;;;3.37;;
24086;SDS011;22893;50.572;7.234;2022-11-13T03:18:40;5.50;;;3.47;;
24086;SDS011;22893;50.572;7.234;2022-11-13T03:21:09;6.12;;;3.30;;
24086;SDS011;22893;50.572;7.234;2022-11-13T03:23:39;7.15;;;3.15;;
24086;SDS011;22893;50.572;7.234;2022-11-13T03:26:10;6.55;;;3.52;;
24086;SDS011;22893;50.572;7.234;2022-11-13T03:28:39;6.92;;;3.92;;
24086;SDS011;22893;50.572;7.234;2022-11-13T03:31:07;5.80;;;3.15;;
24086;SDS011;22893;50.572;7.234;2022-11-13T03:33:35;5.45;;;3.70;;
24086;SDS011;22893;50.572;7.234;2022-11-13T03:36:02;6.12;;;3.47;;
24086;SDS011;22893;50.572;7.234;2022-11-13T03:38:32;6.87;;;3.90;;
24086;SDS011;22893;50.572;7.234;2022-11-13T03:41:00;6.55;;;3.83;;
24086;SDS011;22893;50.572;7.234;2022-11-13T03:43:28;6.03;;;2.92;;
24086;SDS011;22893;50.572;7.234;2022-11-13T03:45:56;8.20;;;3.95;;
24086;SDS011;22893;50.572;7.234;2022-11-13T03:48:23;6.83;;;3.35;;
24086;SDS011;22893;50.572;7.234;2022-11-13T03:50:52;6.00;;;3.45;;
24086;SDS011;22893;50.572;7.234;2022-11-13T03:53:20;6.15;;;3.33;;
24086;SDS011;22893;50.572;7.234;2022-11-13T03:55:48;5.85;;;3.15;;
24086;SDS011;22893;50.572;7.234;2022-11-13T03:58:16;7.05;;;3.42;;
24086;SDS011;22893;50.572;7.234;2022-11-13T04:00:44;6.42;;;3.25;;
24086;SDS011;22893;50.572;7.234;2022-11-13T04:03:12;6.47;;;3.40;;
24086;SDS011;22893;50.572;7.234;2022-11-13T04:05:40;5.80;;;3.12;;
24086;SDS011;22893;50.572;7.234;2022-11-13T04:08:09;6.45;;;3.50;;
24086;SDS011;22893;50.572;7.234;2022-11-13T04:10:36;4.58;;;2.98;;
24086;SDS011;22893;50.572;7.234;2022-11-13T04:13:04;6.22;;;3.10;;
24086;SDS011;22893;50.572;7.234;2022-11-13T04:15:31;6.40;;;3.55;;
24086;SDS011;22893;50.572;7.234;2022-11-13T04:17:59;4.25;;;2.83;;
24086;SDS011;22893;50.572;7.234;2022-11-13T04:20:27;6.22;;;3.02;;
24086;SDS011;22893;50.572;7.234;2022-11-13T04:22:55;6.65;;;3.15;;
24086;SDS011;22893;50.572;7.234;2022-11-13T04:25:23;7.00;;;3.55;;
24086;SDS011;22893;50.572;7.234;2022-11-13T04:27:52;7.22;;;3.22;;
24086;SDS011;22893;50.572;7.234;2022-11-13T04:30:19;5.62;;;3.00;;
24086;SDS011;22893;50.572;7.234;2022-11-13T04:32:47;3.90;;;2.50;;
24086;SDS011;22893;50.572;7.234;2022-11-13T04:35:15;6.03;;;2.92;;
24086;SDS011;22893;50.572;7.234;2022-11-13T04:37:42;4.03;;;2.45;;
24086;SDS011;22893;50.572;7.234;2022-11-13T04:40:10;4.67;;;2.50;;
24086;SDS011;22893;50.572;7.234;2022-11-13T04:42:37;5.37;;;3.10;;
24086;SDS011;22893;50.572;7.234;2022-11-13T04:45:18;4.12;;;2.77;;
24086;SDS011;22893;50.572;7.234;2022-11-13T04:47:47;4.67;;;2.95;;
24086;SDS011;22893;50.572;7.234;2022-11-13T04:50:16;6.08;;;3.15;;
24086;SDS011;22893;50.572;7.234;2022-11-13T04:52:44;6.08;;;2.55;;
24086;SDS011;22893;50.572;7.234;2022-11-13T04:55:12;5.08;;;2.98;;
24086;SDS011;22893;50.572;7.234;2022-11-13T04:57:40;4.12;;;2.58;;
24086;SDS011;22893;50.572;7.234;2022-11-13T05:00:08;6.15;;;2.47;;
24086;SDS011;22893;50.572;7.234;2022-11-13T05:02:36;4.35;;;2.62;;
24086;SDS011;22893;50.572;7.234;2022-11-13T05:05:04;5.55;;;2.80;;
24086;SDS011;22893;50.572;7.234;2022-11-13T05:07:32;5.00;;;2.60;;
24086;SDS011;22893;50.572;7.234;2022-11-13T05:10:00;6.85;;;3.02;;
24086;SDS011;22893;50.572;7.234;2022-11-13T05:12:27;5.55;;;2.90;;
24086;SDS011;22893;50.572;7.234;2022-11-13T05:14:55;5.33;;;2.58;;
24086;SDS011;22893;50.572;7.234;2022-11-13T05:17:22;6.78;;;2.85;;
24086;SDS011;22893;50.572;7.234;2022-11-13T05:19:50;4.62;;;2.55;;
24086;SDS011;22893;50.572;7.234;2022-11-13T05:22:17;5.37;;;2.95;;
24086;SDS011;22893;50.572;7.234;2022-11-13T05:24:45;5.65;;;2.55;;
24086;SDS011;22893;50.572;7.234;2022-11-13T05:27:13;3.35;;;2.22;;
24086;SDS011;22893;50.572;7.234;2022-11-13T05:29:40;4.60;;;2.40;;
24086;SDS011;22893;50.572;7.234;2022-11-13T05:32:08;4.90;;;2.42;;
24086;SDS011;22893;50.572;7.234;2022-11-13T05:34:35;4.85;;;3.02;;
24086;SDS011;22893;50.572;7.234;2022-11-13T05:37:03;4.35;;;2.12;;
24086;SDS011;22893;50.572;7.234;2022-11-13T05:39:30;4.35;;;2.70;;
24086;SDS011;22893;50.572;7.234;2022-11-13T05:41:58;5.80;;;3.15;;
24086;SDS011;22893;50.572;7.234;2022-11-13T05:44:25;3.75;;;2.33;;
24086;SDS011;22893;50.572;7.234;2022-11-13T05:46:53;4.37;;;2.55;;
24086;SDS011;22893;50.572;7.234;2022-11-13T05:49:20;5.17;;;3.12;;
24086;SDS011;22893;50.572;7.234;2022-11-13T05:51:48;4.87;;;2.35;;
24086;SDS011;22893;50.572;7.234;2022-11-13T05:54:16;5.80;;;3.60;;
24086;SDS011;22893;50.572;7.234;2022-11-13T05:56:43;7.30;;;2.85;;
24086;SDS011;22893;50.572;7.234;2022-11-13T05:59:11;4.75;;;2.40;;
24086;SDS011;22893;50.572;7.234;2022-11-13T06:01:39;4.97;;;2.98;;
24086;SDS011;22893;50.572;7.234;2022-11-13T06:04:07;4.47;;;2.50;;
24086;SDS011;22893;50.572;7.234;2022-11-13T06:06:36;4.10;;;2.02;;
24086;SDS011;22893;50.572;7.234;2022-11-13T06:09:03;5.53;;;2.58;;
24086;SDS011;22893;50.572;7.234;2022-11-13T06:11:32;4.45;;;2.65;;
24086;SDS011;22893;50.572;7.234;2022-11-13T06:14:00;4.40;;;2.47;;
24086;SDS011;22893;50.572;7.234;2022-11-13T06:16:28;6.58;;;2.87;;
24086;SDS011;22893;50.572;7.234;2022-11-13T06:18:59;5.70;;;2.67;;
24086;SDS011;22893;50.572;7.234;2022-11-13T06:21:28;3.65;;;2.15;;
24086;SDS011;22893;50.572;7.234;2022-11-13T06:23:57;4.45;;;2.60;;
24086;SDS011;22893;50.572;7.234;2022-11-13T06:26:27;5.75;;;2.40;;
24086;SDS011;22893;50.572;7.234;2022-11-13T06:28:57;3.52;;;2.30;;
24086;SDS011;22893;50.572;7.234;2022-11-13T06:31:27;3.85;;;2.12;;
24086;SDS011;22893;50.572;7.234;2022-11-13T06:33:58;3.90;;;2.35;;
24086;SDS011;22893;50.572;7.234;2022-11-13T06:36:27;3.95;;;2.25;;
24086;SDS011;22893;50.572;7.234;2022-11-13T06:38:57;3.60;;;2.30;;
24086;SDS011;22893;50.572;7.234;2022-11-13T06:41:26;3.55;;;2.17;;
24086;SDS011;22893;50.572;7.234;2022-11-13T06:43:56;3.55;;;2.25;;
24086;SDS011;22893;50.572;7.234;2022-11-13T06:46:26;5.00;;;2.12;;
24086;SDS011;22893;50.572;7.234;2022-11-13T06:48:54;3.95;;;2.50;;
24086;SDS011;22893;50.572;7.234;2022-11-13T06:51:23;4.62;;;2.15;;
24086;SDS011;22893;50.572;7.234;2022-11-13T06:53:52;4.35;;;2.10;;
24086;SDS011;22893;50.572;7.234;2022-11-13T06:56:20;4.70;;;2.58;;
24086;SDS011;22893;50.572;7.234;2022-11-13T06:58:49;3.95;;;2.45;;
24086;SDS011;22893;50.572;7.234;2022-11-13T07:01:20;5.00;;;2.20;;
24086;SDS011;22893;50.572;7.234;2022-11-13T07:03:49;4.10;;;2.37;;
24086;SDS011;22893;50.572;7.234;2022-11-13T07:06:19;5.20;;;2.25;;
24086;SDS011;22893;50.572;7.234;2022-11-13T07:08:47;3.62;;;2.12;;
24086;SDS011;22893;50.572;7.234;2022-11-13T07:11:17;4.65;;;2.67;;
24086;SDS011;22893;50.572;7.234;2022-11-13T07:13:46;4.30;;;2.65;;
24086;SDS011;22893;50.572;7.234;2022-11-13T07:16:15;5.03;;;2.15;;
24086;SDS011;22893;50.572;7.234;2022-11-13T07:18:53;4.47;;;2.65;;
24086;SDS011;22893;50.572;7.234;2022-11-13T07:21:19;4.20;;;2.27;;
24086;SDS011;22893;50.572;7.234;2022-11-13T07:23:48;4.75;;;2.33;;
24086;SDS011;22893;50.572;7.234;2022-11-13T07:26:16;4.55;;;2.37;;
24086;SDS011;22893;50.572;7.234;2022-11-13T07:28:44;3.52;;;2.20;;
24086;SDS011;22893;50.572;7.234;2022-11-13T07:31:12;3.80;;;2.37;;
24086;SDS011;22893;50.572;7.234;2022-11-13T07:33:41;3.85;;;2.65;;
24086;SDS011;22893;50.572;7.234;2022-11-13T07:36:09;6.00;;;3.00;;
24086;SDS011;22893;50.572;7.234;2022-11-13T07:38:37;5.20;;;2.92;;
24086;SDS011;22893;50.572;7.234;2022-11-13T07:41:05;3.27;;;2.08;;
24086;SDS011;22893;50.572;7.234;2022-11-13T07:43:33;5.95;;;3.27;;
24086;SDS011;22893;50.572;7.234;2022-11-13T07:46:00;6.50;;;4.15;;
24086;SDS011;22893;50.572;7.234;2022-11-13T07:48:28;7.15;;;2.90;;
24086;SDS011;22893;50.572;7.234;2022-11-13T07:50:59;7.20;;;2.65;;
24086;SDS011;22893;50.572;7.234;2022-11-13T07:53:27;5.70;;;2.92;;
24086;SDS011;22893;50.572;7.234;2022-11-13T07:55:58;4.50;;;2.02;;
24086;SDS011;22893;50.572;7.234;2022-11-13T07:58:28;3.85;;;2.70;;
24086;SDS011;22893;50.572;7.234;2022-11-13T08:01:05;5.30;;;2.37;;
24086;SDS011;22893;50.572;7.234;2022-11-13T08:03:48;4.15;;;2.77;;
24086;SDS011;22893;50.572;7.234;2022-11-13T08:06:16;5.85;;;3.12;;
24086;SDS011;22893;50.572;7.234;2022-11-13T08:08:45;4.15;;;2.60;;
24086;SDS011;22893;50.572;7.234;2022-11-13T08:11:14;5.08;;;2.52;;
24086;SDS011;22893;50.572;7.234;2022-11-13T08:13:42;12.65;;;2.98;;
24086;SDS011;22893;50.572;7.234;2022-11-13T08:16:09;4.30;;;2.50;;
24086;SDS011;22893;50.572;7.234;2022-11-13T08:18:37;11.18;;;2.77;;
24086;SDS011;22893;50.572;7.234;2022-11-13T08:21:04;4.22;;;2.47;;
24086;SDS011;22893;50.572;7.234;2022-11-13T08:23:32;5.58;;;2.42;;
24086;SDS011;22893;50.572;7.234;2022-11-13T08:26:03;4.00;;;2.42;;
24086;SDS011;22893;50.572;7.234;2022-11-13T08:28:32;4.83;;;2.42;;
24086;SDS011;22893;50.572;7.234;2022-11-13T08:31:00;6.28;;;2.55;;
24086;SDS011;22893;50.572;7.234;2022-11-13T08:33:29;4.42;;;2.72;;
24086;SDS011;22893;50.572;7.234;2022-11-13T08:35:58;5.62;;;2.55;;
24086;SDS011;22893;50.572;7.234;2022-11-13T08:38:26;6.45;;;3.00;;
24086;SDS011;22893;50.572;7.234;2022-11-13T08:41:02;8.83;;;3.60;;
24086;SDS011;22893;50.572;7.234;2022-11-13T08:43:26;10.28;;;3.67;;
24086;SDS011;22893;50.572;7.234;2022-11-13T08:45:54;6.85;;;2.80;;
24086;SDS011;22893;50.572;7.234;2022-11-13T08:48:22;4.15;;;2.42;;
24086;SDS011;22893;50.572;7.234;2022-11-13T08:50:51;6.05;;;2.55;;
24086;SDS011;22893;50.572;7.234;2022-11-13T08:53:19;6.95;;;2.50;;
24086;SDS011;22893;50.572;7.234;2022-11-13T08:55:48;6.17;;;3.60;;
24086;SDS011;22893;50.572;7.234;2022-11-13T08:58:15;5.42;;;3.37;;
24086;SDS011;22893;50.572;7.234;2022-11-13T09:00:43;5.20;;;2.70;;
24086;SDS011;22893;50.572;7.234;2022-11-13T09:03:11;6.22;;;2.27;;
24086;SDS011;22893;50.572;7.234;2022-11-13T09:05:39;8.48;;;3.37;;
24086;SDS011;22893;50.572;7.234;2022-11-13T09:08:06;6.35;;;2.50;;
24086;SDS011;22893;50.572;7.234;2022-11-13T09:10:35;4.40;;;2.25;;
24086;SDS011;22893;50.572;7.234;2022-11-13T09:13:03;10.75;;;2.90;;
24086;SDS011;22893;50.572;7.234;2022-11-13T09:15:33;8.05;;;2.47;;
24086;SDS011;22893;50.572;7.234;2022-11-13T09:18:03;5.85;;;2.75;;
24086;SDS011;22893;50.572;7.234;2022-11-13T09:20:32;5.55;;;2.65;;
24086;SDS011;22893;50.572;7.234;2022-11-13T09:23:06;8.55;;;2.58;;
24086;SDS011;22893;50.572;7.234;2022-11-13T09:25:32;9.98;;;3.12;;
24086;SDS011;22893;50.572;7.234;2022-11-13T09:28:01;11.30;;;3.27;;
24086;SDS011;22893;50.572;7.234;2022-11-13T09:30:29;4.28;;;2.50;;
24086;SDS011;22893;50.572;7.234;2022-11-13T09:32:58;6.08;;;2.87;;
24086;SDS011;22893;50.572;7.234;2022-11-13T09:35:26;5.58;;;2.55;;
24086;SDS011;22893;50.572;7.234;2022-11-13T09:38:02;4.62;;;2.50;;
24086;SDS011;22893;50.572;7.234;2022-11-13T09:40:37;4.75;;;2.37;;
24086;SDS011;22893;50.572;7.234;2022-11-13T09:43:06;3.87;;;2.30;;
24086;SDS011;22893;50.572;7.234;2022-11-13T09:45:36;5.03;;;2.25;;
24086;SDS011;22893;50.572;7.234;2022-11-13T09:48:12;5.47;;;2.77;;
24086;SDS011;22893;50.572;7.234;2022-11-13T09:50:37;5.03;;;2.72;;
24086;SDS011;22893;50.572;7.234;2022-11-13T09:53:07;5.12;;;2.55;;
24086;SDS011;22893;50.572;7.234;2022-11-13T09:55:39;5.50;;;2.45;;
24086;SDS011;22893;50.572;7.234;2022-11-13T09:58:25;7.87;;;2.67;;
24086;SDS011;22893;50.572;7.234;2022-11-13T10:00:53;4.17;;;2.30;;
24086;SDS011;22893;50.572;7.234;2022-11-13T10:03:46;4.53;;;2.27;;
24086;SDS011;22893;50.572;7.234;2022-11-13T10:06:09;4.33;;;2.75;;
24086;SDS011;22893;50.572;7.234;2022-11-13T10:16:54;4.20;;;2.15;;
24086;SDS011;22893;50.572;7.234;2022-11-13T10:19:38;5.60;;;2.70;;
24086;SDS011;22893;50.572;7.234;2022-11-13T10:22:18;4.08;;;2.55;;
24086;SDS011;22893;50.572;7.234;2022-11-13T10:25:04;4.25;;;2.40;;
24086;SDS011;22893;50.572;7.234;2022-11-13T10:27:39;4.45;;;2.70;;
24086;SDS011;22893;50.572;7.234;2022-11-13T10:30:17;3.27;;;2.12;;
24086;SDS011;22893;50.572;7.234;2022-11-13T10:32:44;5.55;;;2.60;;
24086;SDS011;22893;50.572;7.234;2022-11-13T10:38:15;4.67;;;2.58;;
24086;SDS011;22893;50.572;7.234;2022-11-13T10:41:02;4.33;;;2.22;;
24086;SDS011;22893;50.572;7.234;2022-11-13T10:43:32;3.10;;;1.90;;
24086;SDS011;22893;50.572;7.234;2022-11-13T10:46:02;5.72;;;2.20;;
24086;SDS011;22893;50.572;7.234;2022-11-13T10:48:31;4.50;;;2.30;;
24086;SDS011;22893;50.572;7.234;2022-11-13T10:51:03;4.85;;;2.05;;
24086;SDS011;22893;50.572;7.234;2022-11-13T10:53:37;3.10;;;1.92;;
24086;SDS011;22893;50.572;7.234;2022-11-13T10:56:18;4.33;;;2.30;;
24086;SDS011;22893;50.572;7.234;2022-11-13T11:01:40;3.87;;;2.17;;
24086;SDS011;22893;50.572;7.234;2022-11-13T11:04:18;2.77;;;1.67;;
24086;SDS011;22893;50.572;7.234;2022-11-13T11:06:40;4.20;;;2.45;;
24086;SDS011;22893;50.572;7.234;2022-11-13T11:11:58;3.55;;;2.05;;
24086;SDS011;22893;50.572;7.234;2022-11-13T11:14:52;3.80;;;2.20;;
24086;SDS011;22893;50.572;7.234;2022-11-13T11:20:08;4.55;;;2.27;;
24086;SDS011;22893;50.572;7.234;2022-11-13T11:22:53;3.22;;;1.98;;
24086;SDS011;22893;50.572;7.234;2022-11-13T11:25:35;4.25;;;2.30;;
24086;SDS011;22893;50.572;7.234;2022-11-13T11:28:08;6.33;;;2.20;;
24086;SDS011;22893;50.572;7.234;2022-11-13T11:30:34;6.30;;;2.17;;
24086;SDS011;22893;50.572;7.234;2022-11-13T11:33:14;6.58;;;2.67;;
24086;SDS011;22893;50.572;7.234;2022-11-13T11:35:59;4.92;;;2.80;;
24086;SDS011;22893;50.572;7.234;2022-11-13T11:38:32;3.58;;;2.02;;
24086;SDS011;22893;50.572;7.234;2022-11-13T11:41:16;3.20;;;2.17;;
24086;SDS011;22893;50.572;7.234;2022-11-13T11:43:58;3.70;;;2.50;;
24086;SDS011;22893;50.572;7.234;2022-11-13T11:46:31;5.45;;;2.77;;
24086;SDS011;22893;50.572;7.234;2022-11-13T11:49:00;4.30;;;2.30;;
24086;SDS011;22893;50.572;7.234;2022-11-13T11:51:34;4.08;;;2.47;;
24086;SDS011;22893;50.572;7.234;2022-11-13T11:54:08;3.95;;;2.10;;
24086;SDS011;22893;50.572;7.234;2022-11-13T11:56:51;2.85;;;1.87;;
24086;SDS011;22893;50.572;7.234;2022-11-13T12:02:15;3.80;;;2.10;;
24086;SDS011;22893;50.572;7.234;2022-11-13T12:10:56;2.92;;;1.55;;
24086;SDS011;22893;50.572;7.234;2022-11-13T12:13:55;4.08;;;2.20;;
24086;SDS011;22893;50.572;7.234;2022-11-13T12:19:03;3.65;;;1.82;;
24086;SDS011;22893;50.572;7.234;2022-11-13T12:24:28;3.45;;;2.02;;
24086;SDS011;22893;50.572;7.234;2022-11-13T12:35:49;4.35;;;1.98;;
24086;SDS011;22893;50.572;7.234;2022-11-13T12:39:17;3.47;;;2.02;;
24086;SDS011;22893;50.572;7.234;2022-11-13T12:44:12;3.35;;;1.80;;
24086;SDS011;22893;50.572;7.234;2022-11-13T12:46:39;3.12;;;1.90;;
24086;SDS011;22893;50.572;7.234;2022-11-13T12:51:59;4.42;;;1.60;;
24086;SDS011;22893;50.572;7.234;2022-11-13T12:54:26;3.87;;;1.82;;
24086;SDS011;22893;50.572;7.234;2022-11-13T12:59:43;3.77;;;1.72;;
24086;SDS011;22893;50.572;7.234;2022-11-13T13:02:29;3.30;;;2.10;;
24086;SDS011;22893;50.572;7.234;2022-11-13T13:05:29;3.17;;;1.80;;
24086;SDS011;22893;50.572;7.234;2022-11-13T13:08:03;3.65;;;2.00;;
24086;SDS011;22893;50.572;7.234;2022-11-13T13:16:28;2.20;;;1.40;;
24086;SDS011;22893;50.572;7.234;2022-11-13T13:19:05;3.47;;;1.70;;
24086;SDS011;22893;50.572;7.234;2022-11-13T13:21:38;4.37;;;1.70;;
24086;SDS011;22893;50.572;7.234;2022-11-13T13:24:09;2.67;;;1.57;;
24086;SDS011;22893;50.572;7.234;2022-11-13T13:26:56;2.00;;;1.80;;
24086;SDS011;22893;50.572;7.234;2022-11-13T13:29:26;2.58;;;1.60;;
24086;SDS011;22893;50.572;7.234;2022-11-13T13:45:36;2.77;;;1.45;;
24086;SDS011;22893;50.572;7.234;2022-11-13T13:48:11;2.52;;;1.52;;
24086;SDS011;22893;50.572;7.234;2022-11-13T13:50:45;4.97;;;1.80;;
24086;SDS011;22893;50.572;7.234;2022-11-13T13:53:11;5.72;;;1.90;;
24086;SDS011;22893;50.572;7.234;2022-11-13T13:55:45;2.58;;;1.65;;
24086;SDS011;22893;50.572;7.234;2022-11-13T13:58:16;4.55;;;1.60;;
24086;SDS011;22893;50.572;7.234;2022-11-13T14:00:55;2.90;;;1.77;;
24086;SDS011;22893;50.572;7.234;2022-11-13T14:03:25;4.97;;;1.60;;
24086;SDS011;22893;50.572;7.234;2022-11-13T14:05:54;4.70;;;1.80;;
24086;SDS011;22893;50.572;7.234;2022-11-13T14:08:24;2.50;;;1.30;;
24086;SDS011;22893;50.572;7.234;2022-11-13T14:10:52;2.60;;;1.55;;
24086;SDS011;22893;50.572;7.234;2022-11-13T14:13:26;4.60;;;2.00;;
24086;SDS011;22893;50.572;7.234;2022-11-13T14:16:01;3.70;;;1.80;;
24086;SDS011;22893;50.572;7.234;2022-11-13T14:18:31;3.77;;;1.60;;
24086;SDS011;22893;50.572;7.234;2022-11-13T14:21:10;3.15;;;2.10;;
24086;SDS011;22893;50.572;7.234;2022-11-13T14:23:46;1.92;;;1.20;;
24086;SDS011;22893;50.572;7.234;2022-11-13T14:26:12;3.08;;;1.80;;
24086;SDS011;22893;50.572;7.234;2022-11-13T14:28:49;2.30;;;1.37;;
24086;SDS011;22893;50.572;7.234;2022-11-13T14:31:26;5.03;;;2.12;;
24086;SDS011;22893;50.572;7.234;2022-11-13T14:33:56;4.83;;;1.70;;
24086;SDS011;22893;50.572;7.234;2022-11-13T14:36:36;3.87;;;1.77;;
24086;SDS011;22893;50.572;7.234;2022-11-13T14:39:05;4.25;;;2.50;;
24086;SDS011;22893;50.572;7.234;2022-11-13T14:44:28;3.60;;;1.80;;
24086;SDS011;22893;50.572;7.234;2022-11-13T14:46:59;5.67;;;1.65;;
24086;SDS011;22893;50.572;7.234;2022-11-13T14:49:29;4.75;;;1.80;;
24086;SDS011;22893;50.572;7.234;2022-11-13T14:52:00;3.70;;;1.60;;
24086;SDS011;22893;50.572;7.234;2022-11-13T14:54:29;2.80;;;1.67;;
24086;SDS011;22893;50.572;7.234;2022-11-13T14:57:05;3.25;;;1.90;;
24086;SDS011;22893;50.572;7.234;2022-11-13T14:59:37;5.17;;;1.98;;
24086;SDS011;22893;50.572;7.234;2022-11-13T15:02:09;4.75;;;1.87;;
24086;SDS011;22893;50.572;7.234;2022-11-13T15:04:38;3.62;;;2.08;;
24086;SDS011;22893;50.572;7.234;2022-11-13T15:09:56;2.90;;;1.57;;
24086;SDS011;22893;50.572;7.234;2022-11-13T15:12:25;4.12;;;2.45;;
24086;SDS011;22893;50.572;7.234;2022-11-13T15:14:53;3.45;;;1.90;;
24086;SDS011;22893;50.572;7.234;2022-11-13T15:17:21;2.72;;;1.95;;
24086;SDS011;22893;50.572;7.234;2022-11-13T15:19:53;4.25;;;2.30;;
24086;SDS011;22893;50.572;7.234;2022-11-13T15:22:19;3.17;;;2.08;;
24086;SDS011;22893;50.572;7.234;2022-11-13T15:24:48;1.85;;;1.42;;
24086;SDS011;22893;50.572;7.234;2022-11-13T15:27:16;2.45;;;1.42;;
24086;SDS011;22893;50.572;7.234;2022-11-13T15:29:44;3.20;;;1.70;;
24086;SDS011;22893;50.572;7.234;2022-11-13T15:32:12;2.52;;;1.25;;
24086;SDS011;22893;50.572;7.234;2022-11-13T15:34:41;2.15;;;1.40;;
24086;SDS011;22893;50.572;7.234;2022-11-13T15:37:16;2.98;;;1.62;;
24086;SDS011;22893;50.572;7.234;2022-11-13T15:39:50;3.37;;;1.50;;
24086;SDS011;22893;50.572;7.234;2022-11-13T15:42:20;2.20;;;1.35;;
24086;SDS011;22893;50.572;7.234;2022-11-13T15:44:50;2.15;;;1.30;;
24086;SDS011;22893;50.572;7.234;2022-11-13T15:47:24;2.60;;;1.50;;
24086;SDS011;22893;50.572;7.234;2022-11-13T15:49:48;4.33;;;1.62;;
24086;SDS011;22893;50.572;7.234;2022-11-13T15:52:15;10.40;;;2.33;;
24086;SDS011;22893;50.572;7.234;2022-11-13T15:54:43;3.52;;;1.77;;
24086;SDS011;22893;50.572;7.234;2022-11-13T15:57:19;2.62;;;1.67;;
24086;SDS011;22893;50.572;7.234;2022-11-13T15:59:47;3.52;;;1.65;;
24086;SDS011;22893;50.572;7.234;2022-11-13T16:02:15;4.08;;;1.82;;
24086;SDS011;22893;50.572;7.234;2022-11-13T16:04:43;5.35;;;2.10;;
24086;SDS011;22893;50.572;7.234;2022-11-13T16:07:18;3.25;;;1.90;;
24086;SDS011;22893;50.572;7.234;2022-11-13T16:09:48;4.62;;;2.10;;
24086;SDS011;22893;50.572;7.234;2022-11-13T16:12:15;3.45;;;2.02;;
24086;SDS011;22893;50.572;7.234;2022-11-13T16:14:43;4.28;;;2.05;;
24086;SDS011;22893;50.572;7.234;2022-11-13T16:17:15;4.33;;;1.82;;
24086;SDS011;22893;50.572;7.234;2022-11-13T16:19:51;3.77;;;2.12;;
24086;SDS011;22893;50.572;7.234;2022-11-13T16:22:17;2.60;;;1.90;;
24086;SDS011;22893;50.572;7.234;2022-11-13T16:24:46;3.60;;;1.87;;
24086;SDS011;22893;50.572;7.234;2022-11-13T16:27:23;3.00;;;2.05;;
24086;SDS011;22893;50.572;7.234;2022-11-13T16:29:50;4.97;;;2.17;;
24086;SDS011;22893;50.572;7.234;2022-11-13T16:32:17;4.70;;;2.12;;
24086;SDS011;22893;50.572;7.234;2022-11-13T16:34:45;3.00;;;2.00;;
24086;SDS011;22893;50.572;7.234;2022-11-13T16:37:20;3.65;;;2.15;;
24086;SDS011;22893;50.572;7.234;2022-11-13T16:39:49;3.60;;;2.15;;
24086;SDS011;22893;50.572;7.234;2022-11-13T16:42:16;4.05;;;2.37;;
24086;SDS011;22893;50.572;7.234;2022-11-13T16:44:44;4.17;;;2.25;;
24086;SDS011;22893;50.572;7.234;2022-11-13T16:47:18;3.80;;;2.00;;
24086;SDS011;22893;50.572;7.234;2022-11-13T16:49:45;7.28;;;3.45;;
24086;SDS011;22893;50.572;7.234;2022-11-13T16:52:12;3.95;;;2.33;;
24086;SDS011;22893;50.572;7.234;2022-11-13T16:54:40;4.10;;;2.05;;
24086;SDS011;22893;50.572;7.234;2022-11-13T16:57:09;7.83;;;2.35;;
24086;SDS011;22893;50.572;7.234;2022-11-13T16:59:37;4.33;;;2.10;;
24086;SDS011;22893;50.572;7.234;2022-11-13T17:02:12;5.80;;;2.50;;
24086;SDS011;22893;50.572;7.234;2022-11-13T17:04:42;2.75;;;1.95;;
24086;SDS011;22893;50.572;7.234;2022-11-13T17:07:10;7.05;;;2.37;;
24086;SDS011;22893;50.572;7.234;2022-11-13T17:09:40;5.25;;;1.98;;
24086;SDS011;22893;50.572;7.234;2022-11-13T17:12:10;5.95;;;2.12;;
24086;SDS011;22893;50.572;7.234;2022-11-13T17:14:37;8.00;;;3.15;;
24086;SDS011;22893;50.572;7.234;2022-11-13T17:17:06;7.03;;;2.62;;
24086;SDS011;22893;50.572;7.234;2022-11-13T17:19:35;4.90;;;3.12;;
24086;SDS011;22893;50.572;7.234;2022-11-13T17:22:05;6.53;;;3.17;;
24086;SDS011;22893;50.572;7.234;2022-11-13T17:24:33;5.05;;;2.10;;
24086;SDS011;22893;50.572;7.234;2022-11-13T17:27:00;7.33;;;2.45;;
24086;SDS011;22893;50.572;7.234;2022-11-13T17:29:28;5.08;;;2.27;;
24086;SDS011;22893;50.572;7.234;2022-11-13T17:31:56;6.47;;;2.70;;
24086;SDS011;22893;50.572;7.234;2022-11-13T17:34:24;6.60;;;2.62;;
24086;SDS011;22893;50.572;7.234;2022-11-13T17:36:52;4.22;;;2.37;;
24086;SDS011;22893;50.572;7.234;2022-11-13T17:39:22;6.20;;;2.45;;
24086;SDS011;22893;50.572;7.234;2022-11-13T17:41:50;12.23;;;3.17;;
24086;SDS011;22893;50.572;7.234;2022-11-13T17:44:17;8.40;;;2.83;;
24086;SDS011;22893;50.572;7.234;2022-11-13T17:46:45;5.00;;;2.47;;
24086;SDS011;22893;50.572;7.234;2022-11-13T17:49:13;12.82;;;3.98;;
24086;SDS011;22893;50.572;7.234;2022-11-13T17:51:41;6.00;;;2.95;;